sensor_id;sensor_type;location;lat;lon;timestamp;pressure;altitude;pressure_sealevel;temperature;humidity
10135;BME280;5107;48.850;8.924;2023-03-21T00:01:13;97033.50;;;9.33;78.01
10135;BME280;5107;48.850;8.924;2023-03-21T00:03:40;97033.34;;;9.35;78.78
10135;BME280;5107;48.850;8.924;2023-03-21T00:06:12;97035.00;;;9.36;78.91
10135;BME280;5107;48.850;8.924;2023-03-21T00:08:39;97034.81;;;9.37;79.25
10135;BME280;5107;48.850;8.924;2023-03-21T00:11:09;97028.44;;;9.40;79.35
10135;BME280;5107;48.850;8.924;2023-03-21T00:13:38;97024.31;;;9.37;79.60
10135;BME280;5107;48.850;8.924;2023-03-21T00:16:10;97029.91;;;9.34;79.51
10135;BME280;5107;48.850;8.924;2023-03-21T00:18:40;97023.09;;;9.24;80.86
10135;BME280;5107;48.850;8.924;2023-03-21T00:21:13;97018.66;;;9.24;81.03
10135;BME280;5107;48.850;8.924;2023-03-21T00:23:42;97022.94;;;9.25;80.84
10135;BME280;5107;48.850;8.924;2023-03-21T00:26:09;97016.03;;;9.24;81.74
10135;BME280;5107;48.850;8.924;2023-03-21T00:28:37;97019.69;;;9.31;80.97
10135;BME280;5107;48.850;8.924;2023-03-21T00:31:05;97014.44;;;9.31;80.74
10135;BME280;5107;48.850;8.924;2023-03-21T00:33:33;97005.13;;;9.37;80.41
10135;BME280;5107;48.850;8.924;2023-03-21T00:36:03;97008.84;;;9.26;80.98
10135;BME280;5107;48.850;8.924;2023-03-21T00:38:33;97003.81;;;9.15;82.25
10135;BME280;5107;48.850;8.924;2023-03-21T00:41:03;97000.84;;;9.10;83.13
10135;BME280;5107;48.850;8.924;2023-03-21T00:43:30;96995.13;;;9.14;82.81
10135;BME280;5107;48.850;8.924;2023-03-21T00:45:58;96991.81;;;9.12;82.89
10135;BME280;5107;48.850;8.924;2023-03-21T00:48:26;96988.69;;;9.09;83.82
10135;BME280;5107;48.850;8.924;2023-03-21T00:50:56;96982.78;;;9.07;83.58
10135;BME280;5107;48.850;8.924;2023-03-21T00:53:24;96987.19;;;9.06;83.92
10135;BME280;5107;48.850;8.924;2023-03-21T00:55:53;96985.19;;;9.00;83.62
10135;BME280;5107;48.850;8.924;2023-03-21T00:58:20;96988.78;;;8.99;83.01
10135;BME280;5107;48.850;8.924;2023-03-21T01:00:48;96989.31;;;9.03;83.57
10135;BME280;5107;48.850;8.924;2023-03-21T01:03:15;96986.50;;;9.04;83.28
10135;BME280;5107;48.850;8.924;2023-03-21T01:05:45;96984.56;;;9.06;83.04
10135;BME280;5107;48.850;8.924;2023-03-21T01:08:33;96981.13;;;9.06;83.12
10135;BME280;5107;48.850;8.924;2023-03-21T01:11:05;96977.06;;;9.11;82.96
10135;BME280;5107;48.850;8.924;2023-03-21T01:13:33;96977.06;;;9.11;82.61
10135;BME280;5107;48.850;8.924;2023-03-21T01:16:00;96974.44;;;9.11;82.27
10135;BME280;5107;48.850;8.924;2023-03-21T01:18:31;96969.84;;;9.13;82.30
10135;BME280;5107;48.850;8.924;2023-03-21T01:21:00;96970.81;;;9.12;82.23
10135;BME280;5107;48.850;8.924;2023-03-21T01:23:28;96964.69;;;9.04;82.64
10135;BME280;5107;48.850;8.924;2023-03-21T01:25:56;96969.66;;;9.07;82.72
10135;BME280;5107;48.850;8.924;2023-03-21T01:28:27;96969.94;;;9.04;83.42
10135;BME280;5107;48.850;8.924;2023-03-21T01:30:55;96974.50;;;8.94;84.40
10135;BME280;5107;48.850;8.924;2023-03-21T01:33:22;96968.22;;;8.87;84.92
10135;BME280;5107;48.850;8.924;2023-03-21T01:35:50;96970.00;;;8.86;84.97
10135;BME280;5107;48.850;8.924;2023-03-21T01:38:20;96972.56;;;8.78;85.22
10135;BME280;5107;48.850;8.924;2023-03-21T01:40:49;96969.25;;;8.76;85.69
10135;BME280;5107;48.850;8.924;2023-03-21T01:43:33;96968.72;;;8.72;85.75
10135;BME280;5107;48.850;8.924;2023-03-21T01:46:36;96970.84;;;8.69;86.23
10135;BME280;5107;48.850;8.924;2023-03-21T01:49:22;96967.25;;;8.70;86.05
10135;BME280;5107;48.850;8.924;2023-03-21T01:52:02;96965.75;;;8.67;86.17
10135;BME280;5107;48.850;8.924;2023-03-21T01:54:34;96965.06;;;8.65;86.52
10135;BME280;5107;48.850;8.924;2023-03-21T01:57:09;96963.13;;;8.67;86.17
10135;BME280;5107;48.850;8.924;2023-03-21T01:59:42;96967.84;;;8.64;85.49
10135;BME280;5107;48.850;8.924;2023-03-21T02:02:14;96961.47;;;8.66;85.32
10135;BME280;5107;48.850;8.924;2023-03-21T02:05:10;96953.31;;;8.69;85.67
10135;BME280;5107;48.850;8.924;2023-03-21T02:07:39;96958.78;;;8.58;84.12
10135;BME280;5107;48.850;8.924;2023-03-21T02:10:11;96955.47;;;8.56;84.83
10135;BME280;5107;48.850;8.924;2023-03-21T02:12:43;96961.06;;;8.53;84.37
10135;BME280;5107;48.850;8.924;2023-03-21T02:15:12;96949.41;;;8.56;85.12
10135;BME280;5107;48.850;8.924;2023-03-21T02:18:05;96944.16;;;8.56;84.83
10135;BME280;5107;48.850;8.924;2023-03-21T02:21:27;96944.69;;;8.59;84.82
10135;BME280;5107;48.850;8.924;2023-03-21T02:27:41;96933.25;;;8.60;83.77
10135;BME280;5107;48.850;8.924;2023-03-21T02:34:23;96934.22;;;8.59;85.31
10135;BME280;5107;48.850;8.924;2023-03-21T02:37:09;96926.13;;;8.53;84.36
10135;BME280;5107;48.850;8.924;2023-03-21T02:39:56;96925.66;;;8.57;84.39
10135;BME280;5107;48.850;8.924;2023-03-21T02:42:32;96925.97;;;8.54;83.60
10135;BME280;5107;48.850;8.924;2023-03-21T02:45:12;96930.22;;;8.55;83.08
10135;BME280;5107;48.850;8.924;2023-03-21T02:47:50;96926.44;;;8.50;83.47
10135;BME280;5107;48.850;8.924;2023-03-21T02:50:25;96924.63;;;8.50;84.15
10135;BME280;5107;48.850;8.924;2023-03-21T02:52:57;96922.00;;;8.50;85.49
10135;BME280;5107;48.850;8.924;2023-03-21T02:55:27;96924.91;;;8.47;85.34
10135;BME280;5107;48.850;8.924;2023-03-21T02:58:01;96925.06;;;8.46;85.23
10135;BME280;5107;48.850;8.924;2023-03-21T03:00:31;96924.41;;;8.44;85.30
10135;BME280;5107;48.850;8.924;2023-03-21T03:03:00;96927.47;;;8.39;85.50
10135;BME280;5107;48.850;8.924;2023-03-21T03:05:33;96929.75;;;8.34;84.50
10135;BME280;5107;48.850;8.924;2023-03-21T03:08:20;96925.47;;;8.33;82.93
10135;BME280;5107;48.850;8.924;2023-03-21T03:11:07;96924.78;;;8.31;83.66
10135;BME280;5107;48.850;8.924;2023-03-21T03:13:53;96926.16;;;8.35;84.49
10135;BME280;5107;48.850;8.924;2023-03-21T03:16:30;96918.34;;;8.43;84.06
10135;BME280;5107;48.850;8.924;2023-03-21T03:19:06;96918.94;;;8.37;84.68
10135;BME280;5107;48.850;8.924;2023-03-21T03:21:40;96912.06;;;8.36;84.56
10135;BME280;5107;48.850;8.924;2023-03-21T03:24:14;96908.75;;;8.34;84.46
10135;BME280;5107;48.850;8.924;2023-03-21T03:26:52;96913.84;;;8.35;84.14
10135;BME280;5107;48.850;8.924;2023-03-21T03:29:25;96910.41;;;8.35;84.30
10135;BME280;5107;48.850;8.924;2023-03-21T03:31:58;96910.41;;;8.35;82.74
10135;BME280;5107;48.850;8.924;2023-03-21T03:34:33;96906.81;;;8.36;81.83
10135;BME280;5107;48.850;8.924;2023-03-21T03:37:09;96904.84;;;8.38;82.40
10135;BME280;5107;48.850;8.924;2023-03-21T03:39:41;96911.06;;;8.37;82.71
10135;BME280;5107;48.850;8.924;2023-03-21T03:42:16;96908.53;;;8.45;82.67
10135;BME280;5107;48.850;8.924;2023-03-21T03:44:48;96914.38;;;8.39;82.90
10135;BME280;5107;48.850;8.924;2023-03-21T03:47:20;96909.72;;;8.33;83.65
10135;BME280;5107;48.850;8.924;2023-03-21T03:49:58;96907.28;;;8.22;84.87
10135;BME280;5107;48.850;8.924;2023-03-21T03:52:30;96906.41;;;8.13;84.48
10135;BME280;5107;48.850;8.924;2023-03-21T03:55:08;96905.22;;;8.08;84.64
10135;BME280;5107;48.850;8.924;2023-03-21T03:57:40;96899.59;;;8.03;84.90
10135;BME280;5107;48.850;8.924;2023-03-21T04:00:10;96905.00;;;8.01;84.97
10135;BME280;5107;48.850;8.924;2023-03-21T04:02:44;96907.28;;;8.04;85.11
10135;BME280;5107;48.850;8.924;2023-03-21T04:05:16;96899.91;;;7.99;84.94
10135;BME280;5107;48.850;8.924;2023-03-21T04:07:46;96900.34;;;7.95;85.03
10135;BME280;5107;48.850;8.924;2023-03-21T04:10:18;96902.44;;;7.91;85.99
10135;BME280;5107;48.850;8.924;2023-03-21T04:12:46;96895.19;;;7.85;85.17
10135;BME280;5107;48.850;8.924;2023-03-21T04:15:20;96895.59;;;7.81;85.99
10135;BME280;5107;48.850;8.924;2023-03-21T04:17:53;96901.16;;;7.78;85.85
10135;BME280;5107;48.850;8.924;2023-03-21T04:20:20;96890.13;;;7.74;86.31
10135;BME280;5107;48.850;8.924;2023-03-21T04:22:47;96897.22;;;7.64;86.02
10135;BME280;5107;48.850;8.924;2023-03-21T04:25:19;96892.88;;;7.55;86.15
10135;BME280;5107;48.850;8.924;2023-03-21T04:27:46;96890.56;;;7.52;86.38
10135;BME280;5107;48.850;8.924;2023-03-21T04:30:31;96892.78;;;7.47;86.24
10135;BME280;5107;48.850;8.924;2023-03-21T04:33:20;96887.53;;;7.47;86.72
10135;BME280;5107;48.850;8.924;2023-03-21T04:35:53;96886.72;;;7.46;87.32
10135;BME280;5107;48.850;8.924;2023-03-21T04:38:24;96882.59;;;7.44;87.33
10135;BME280;5107;48.850;8.924;2023-03-21T04:40:59;96893.34;;;7.41;87.38
10135;BME280;5107;48.850;8.924;2023-03-21T04:43:28;96888.13;;;7.41;87.00
10135;BME280;5107;48.850;8.924;2023-03-21T04:45:56;96886.84;;;7.45;86.83
10135;BME280;5107;48.850;8.924;2023-03-21T04:48:24;96878.34;;;7.43;87.24
10135;BME280;5107;48.850;8.924;2023-03-21T04:50:51;96873.38;;;7.40;86.86
10135;BME280;5107;48.850;8.924;2023-03-21T04:53:18;96875.50;;;7.36;87.01
10135;BME280;5107;48.850;8.924;2023-03-21T04:55:46;96870.91;;;7.38;86.47
10135;BME280;5107;48.850;8.924;2023-03-21T04:58:14;96886.66;;;7.29;86.05
10135;BME280;5107;48.850;8.924;2023-03-21T05:00:44;96884.34;;;7.26;86.95
10135;BME280;5107;48.850;8.924;2023-03-21T05:03:12;96880.44;;;7.30;87.04
10135;BME280;5107;48.850;8.924;2023-03-21T05:05:45;96886.41;;;7.22;86.60
10135;BME280;5107;48.850;8.924;2023-03-21T05:08:13;96883.28;;;7.18;87.04
10135;BME280;5107;48.850;8.924;2023-03-21T05:10:41;96890.84;;;7.12;87.19
10135;BME280;5107;48.850;8.924;2023-03-21T05:13:09;96883.19;;;7.10;87.30
10135;BME280;5107;48.850;8.924;2023-03-21T05:15:37;96884.56;;;7.05;87.58
10135;BME280;5107;48.850;8.924;2023-03-21T05:18:05;96891.19;;;6.99;87.73
10135;BME280;5107;48.850;8.924;2023-03-21T05:20:41;96889.81;;;6.95;88.13
10135;BME280;5107;48.850;8.924;2023-03-21T05:23:09;96886.94;;;6.98;88.25
10135;BME280;5107;48.850;8.924;2023-03-21T05:25:37;96892.28;;;6.97;88.37
10135;BME280;5107;48.850;8.924;2023-03-21T05:28:13;96890.66;;;6.96;88.03
10135;BME280;5107;48.850;8.924;2023-03-21T05:30:45;96885.69;;;7.02;87.63
10135;BME280;5107;48.850;8.924;2023-03-21T05:33:12;96880.03;;;6.97;87.82
10135;BME280;5107;48.850;8.924;2023-03-21T05:35:40;96886.94;;;6.98;87.91
10135;BME280;5107;48.850;8.924;2023-03-21T05:38:09;96883.09;;;6.93;87.59
10135;BME280;5107;48.850;8.924;2023-03-21T05:40:48;96881.59;;;6.90;87.51
10135;BME280;5107;48.850;8.924;2023-03-21T05:43:16;96885.84;;;6.91;87.68
10135;BME280;5107;48.850;8.924;2023-03-21T05:45:45;96890.53;;;6.88;88.67
10135;BME280;5107;48.850;8.924;2023-03-21T05:48:15;96889.44;;;6.90;88.18
10135;BME280;5107;48.850;8.924;2023-03-21T05:50:59;96887.66;;;6.91;88.08
10135;BME280;5107;48.850;8.924;2023-03-21T05:53:26;96897.66;;;6.95;88.18
10135;BME280;5107;48.850;8.924;2023-03-21T05:55:53;96896.44;;;6.99;87.78
10135;BME280;5107;48.850;8.924;2023-03-21T05:58:53;96897.13;;;6.92;87.64
10135;BME280;5107;48.850;8.924;2023-03-21T06:01:23;96893.25;;;6.96;87.58
10135;BME280;5107;48.850;8.924;2023-03-21T06:03:59;96900.16;;;6.97;86.63
10135;BME280;5107;48.850;8.924;2023-03-21T06:06:28;96900.81;;;7.08;86.63
10135;BME280;5107;48.850;8.924;2023-03-21T06:08:58;96903.28;;;7.10;86.37
10135;BME280;5107;48.850;8.924;2023-03-21T06:11:29;96903.56;;;7.07;85.26
10135;BME280;5107;48.850;8.924;2023-03-21T06:14:29;96903.84;;;7.04;86.03
10135;BME280;5107;48.850;8.924;2023-03-21T06:17:21;96905.34;;;7.06;86.04
10135;BME280;5107;48.850;8.924;2023-03-21T06:19:53;96895.97;;;7.04;85.72
10135;BME280;5107;48.850;8.924;2023-03-21T06:22:27;96901.63;;;7.09;85.18
10135;BME280;5107;48.850;8.924;2023-03-21T06:24:55;96893.78;;;7.09;85.72
10135;BME280;5107;48.850;8.924;2023-03-21T06:27:22;96901.03;;;7.15;86.06
10135;BME280;5107;48.850;8.924;2023-03-21T06:29:52;96891.72;;;7.40;85.45
10135;BME280;5107;48.850;8.924;2023-03-21T06:32:21;96894.13;;;7.78;84.30
10135;BME280;5107;48.850;8.924;2023-03-21T06:34:54;96895.94;;;8.31;83.08
10135;BME280;5107;48.850;8.924;2023-03-21T06:37:21;96890.56;;;8.76;79.26
10135;BME280;5107;48.850;8.924;2023-03-21T06:39:48;96892.22;;;9.37;84.49
10135;BME280;5107;48.850;8.924;2023-03-21T06:42:15;96891.22;;;9.96;80.17
10135;BME280;5107;48.850;8.924;2023-03-21T06:44:43;96880.97;;;10.43;78.19
10135;BME280;5107;48.850;8.924;2023-03-21T06:47:13;96883.44;;;10.69;76.39
10135;BME280;5107;48.850;8.924;2023-03-21T06:49:44;96879.13;;;10.84;72.99
10135;BME280;5107;48.850;8.924;2023-03-21T06:52:12;96885.66;;;11.13;70.33
10135;BME280;5107;48.850;8.924;2023-03-21T06:54:40;96888.19;;;11.45;71.27
10135;BME280;5107;48.850;8.924;2023-03-21T06:57:11;96881.28;;;11.44;66.97
10135;BME280;5107;48.850;8.924;2023-03-21T06:59:39;96882.75;;;10.75;67.05
10135;BME280;5107;48.850;8.924;2023-03-21T07:02:17;96892.94;;;10.30;68.84
10135;BME280;5107;48.850;8.924;2023-03-21T07:04:51;96889.75;;;9.94;71.04
10135;BME280;5107;48.850;8.924;2023-03-21T07:07:24;96891.34;;;9.62;72.90
10135;BME280;5107;48.850;8.924;2023-03-21T07:09:51;96891.00;;;9.65;72.42
10135;BME280;5107;48.850;8.924;2023-03-21T07:12:19;96890.53;;;9.70;71.82
10135;BME280;5107;48.850;8.924;2023-03-21T07:15:02;96893.38;;;9.93;71.95
10135;BME280;5107;48.850;8.924;2023-03-21T07:17:31;96892.63;;;10.24;71.02
10135;BME280;5107;48.850;8.924;2023-03-21T07:19:59;96886.91;;;10.37;70.98
10135;BME280;5107;48.850;8.924;2023-03-21T07:22:27;96893.63;;;10.40;70.24
10135;BME280;5107;48.850;8.924;2023-03-21T07:24:54;96891.34;;;10.37;69.38
10135;BME280;5107;48.850;8.924;2023-03-21T07:27:22;96891.00;;;10.40;70.09
10135;BME280;5107;48.850;8.924;2023-03-21T07:29:49;96890.16;;;10.55;69.54
10135;BME280;5107;48.850;8.924;2023-03-21T07:32:16;96892.16;;;10.53;69.16
10135;BME280;5107;48.850;8.924;2023-03-21T07:34:43;96888.19;;;10.41;69.52
10135;BME280;5107;48.850;8.924;2023-03-21T07:37:12;96886.72;;;10.55;69.25
10135;BME280;5107;48.850;8.924;2023-03-21T07:39:39;96890.94;;;10.96;68.43
10135;BME280;5107;48.850;8.924;2023-03-21T07:42:06;96885.47;;;11.14;66.91
10135;BME280;5107;48.850;8.924;2023-03-21T07:44:38;96883.16;;;11.19;66.65
10135;BME280;5107;48.850;8.924;2023-03-21T07:47:08;96886.94;;;11.17;66.07
10135;BME280;5107;48.850;8.924;2023-03-21T07:49:35;96887.19;;;11.46;65.58
10135;BME280;5107;48.850;8.924;2023-03-21T07:52:03;96889.13;;;11.91;64.85
10135;BME280;5107;48.850;8.924;2023-03-21T07:54:32;96883.66;;;12.24;63.79
10135;BME280;5107;48.850;8.924;2023-03-21T07:57:00;96893.88;;;12.64;61.78
10135;BME280;5107;48.850;8.924;2023-03-21T07:59:27;96886.69;;;12.96;59.34
10135;BME280;5107;48.850;8.924;2023-03-21T08:01:54;96894.88;;;12.86;59.96
10135;BME280;5107;48.850;8.924;2023-03-21T08:04:21;96882.59;;;12.93;58.19
10135;BME280;5107;48.850;8.924;2023-03-21T08:06:49;96888.34;;;12.97;58.60
10135;BME280;5107;48.850;8.924;2023-03-21T08:09:16;96895.16;;;12.91;56.94
10135;BME280;5107;48.850;8.924;2023-03-21T08:11:45;96886.06;;;12.93;58.82
10135;BME280;5107;48.850;8.924;2023-03-21T08:14:13;96891.31;;;12.79;56.63
10135;BME280;5107;48.850;8.924;2023-03-21T08:16:40;96882.84;;;13.21;56.03
10135;BME280;5107;48.850;8.924;2023-03-21T08:19:07;96883.91;;;13.71;54.58
10135;BME280;5107;48.850;8.924;2023-03-21T08:21:34;96889.25;;;13.77;54.35
10135;BME280;5107;48.850;8.924;2023-03-21T08:24:04;96886.25;;;13.80;53.87
10135;BME280;5107;48.850;8.924;2023-03-21T08:26:32;96887.19;;;14.09;54.18
10135;BME280;5107;48.850;8.924;2023-03-21T08:29:00;96876.31;;;14.39;51.63
10135;BME280;5107;48.850;8.924;2023-03-21T08:31:27;96875.53;;;14.24;50.39
10135;BME280;5107;48.850;8.924;2023-03-21T08:33:54;96880.31;;;13.78;51.75
10135;BME280;5107;48.850;8.924;2023-03-21T08:36:22;96877.56;;;13.86;52.20
10135;BME280;5107;48.850;8.924;2023-03-21T08:38:50;96873.63;;;14.18;51.40
10135;BME280;5107;48.850;8.924;2023-03-21T08:41:21;96872.56;;;14.34;51.95
10135;BME280;5107;48.850;8.924;2023-03-21T08:43:50;96866.53;;;14.40;48.36
10135;BME280;5107;48.850;8.924;2023-03-21T08:46:19;96865.53;;;14.62;48.61
10135;BME280;5107;48.850;8.924;2023-03-21T08:48:46;96860.75;;;14.51;47.74
10135;BME280;5107;48.850;8.924;2023-03-21T08:51:13;96860.16;;;14.34;47.70
10135;BME280;5107;48.850;8.924;2023-03-21T08:53:40;96862.38;;;14.31;45.99
10135;BME280;5107;48.850;8.924;2023-03-21T08:56:09;96864.59;;;13.91;44.01
10135;BME280;5107;48.850;8.924;2023-03-21T08:58:36;96865.28;;;13.79;47.36
10135;BME280;5107;48.850;8.924;2023-03-21T09:01:04;96861.16;;;13.76;47.73
10135;BME280;5107;48.850;8.924;2023-03-21T09:03:37;96859.78;;;14.37;47.19
10135;BME280;5107;48.850;8.924;2023-03-21T09:06:04;96859.16;;;14.57;47.94
10135;BME280;5107;48.850;8.924;2023-03-21T09:08:35;96853.38;;;14.47;48.55
10135;BME280;5107;48.850;8.924;2023-03-21T09:11:03;96855.94;;;14.40;49.18
10135;BME280;5107;48.850;8.924;2023-03-21T09:13:30;96852.34;;;14.26;49.40
10135;BME280;5107;48.850;8.924;2023-03-21T09:15:57;96846.44;;;14.46;50.40
10135;BME280;5107;48.850;8.924;2023-03-21T09:18:26;96857.81;;;14.67;48.99
10135;BME280;5107;48.850;8.924;2023-03-21T09:21:12;96858.41;;;14.91;49.24
10135;BME280;5107;48.850;8.924;2023-03-21T09:23:41;96853.13;;;15.25;47.33
10135;BME280;5107;48.850;8.924;2023-03-21T09:26:10;96861.59;;;15.83;47.76
10135;BME280;5107;48.850;8.924;2023-03-21T09:28:39;96852.63;;;15.49;45.65
10135;BME280;5107;48.850;8.924;2023-03-21T09:31:07;96858.53;;;15.45;46.05
10135;BME280;5107;48.850;8.924;2023-03-21T09:33:37;96849.44;;;15.54;46.39
10135;BME280;5107;48.850;8.924;2023-03-21T09:36:06;96859.66;;;15.23;46.94
10135;BME280;5107;48.850;8.924;2023-03-21T09:38:37;96852.28;;;15.18;47.28
10135;BME280;5107;48.850;8.924;2023-03-21T09:41:19;96851.34;;;14.98;47.62
10135;BME280;5107;48.850;8.924;2023-03-21T09:44:04;96855.44;;;15.07;47.72
10135;BME280;5107;48.850;8.924;2023-03-21T09:46:41;96848.97;;;15.50;46.53
10135;BME280;5107;48.850;8.924;2023-03-21T09:49:16;96847.56;;;15.48;47.09
10135;BME280;5107;48.850;8.924;2023-03-21T09:51:48;96851.00;;;15.48;46.23
10135;BME280;5107;48.850;8.924;2023-03-21T09:54:24;96841.59;;;15.39;46.69
10135;BME280;5107;48.850;8.924;2023-03-21T09:56:54;96844.81;;;15.69;47.69
10135;BME280;5107;48.850;8.924;2023-03-21T09:59:29;96849.75;;;15.85;45.85
10135;BME280;5107;48.850;8.924;2023-03-21T10:02:01;96843.44;;;15.80;45.54
10135;BME280;5107;48.850;8.924;2023-03-21T10:04:30;96843.94;;;15.55;45.10
10135;BME280;5107;48.850;8.924;2023-03-21T10:07:01;96833.22;;;15.42;45.51
10135;BME280;5107;48.850;8.924;2023-03-21T10:09:30;96835.84;;;15.77;45.96
10135;BME280;5107;48.850;8.924;2023-03-21T10:12:04;96833.09;;;16.05;44.49
10135;BME280;5107;48.850;8.924;2023-03-21T10:14:37;96834.56;;;16.47;44.33
10135;BME280;5107;48.850;8.924;2023-03-21T10:17:20;96832.91;;;16.13;44.17
10135;BME280;5107;48.850;8.924;2023-03-21T10:19:57;96828.09;;;15.75;45.49
10135;BME280;5107;48.850;8.924;2023-03-21T10:22:35;96826.03;;;15.64;47.34
10135;BME280;5107;48.850;8.924;2023-03-21T10:25:04;96827.03;;;15.22;47.39
10135;BME280;5107;48.850;8.924;2023-03-21T10:27:33;96822.03;;;15.06;47.94
10135;BME280;5107;48.850;8.924;2023-03-21T10:30:02;96828.63;;;15.23;49.05
10135;BME280;5107;48.850;8.924;2023-03-21T10:32:30;96822.16;;;15.32;48.36
10135;BME280;5107;48.850;8.924;2023-03-21T10:34:59;96819.66;;;15.59;47.93
10135;BME280;5107;48.850;8.924;2023-03-21T10:37:29;96822.03;;;15.94;48.99
10135;BME280;5107;48.850;8.924;2023-03-21T10:39:57;96815.50;;;15.49;46.90
10135;BME280;5107;48.850;8.924;2023-03-21T10:42:28;96811.44;;;15.47;47.01
10135;BME280;5107;48.850;8.924;2023-03-21T10:44:58;96811.13;;;15.29;47.82
10135;BME280;5107;48.850;8.924;2023-03-21T10:47:27;96815.25;;;15.31;48.65
10135;BME280;5107;48.850;8.924;2023-03-21T10:49:54;96820.09;;;15.62;48.78
10135;BME280;5107;48.850;8.924;2023-03-21T10:52:22;96817.00;;;15.59;48.11
10135;BME280;5107;48.850;8.924;2023-03-21T10:55:07;96817.81;;;15.59;48.03
10135;BME280;5107;48.850;8.924;2023-03-21T10:57:39;96814.59;;;15.70;48.30
10135;BME280;5107;48.850;8.924;2023-03-21T11:00:09;96821.63;;;15.50;48.14
10135;BME280;5107;48.850;8.924;2023-03-21T11:02:47;96815.25;;;15.31;48.85
10135;BME280;5107;48.850;8.924;2023-03-21T11:05:21;96812.25;;;15.47;48.53
10135;BME280;5107;48.850;8.924;2023-03-21T11:07:57;96813.03;;;15.07;48.84
10135;BME280;5107;48.850;8.924;2023-03-21T11:10:31;96810.88;;;15.17;50.17
10135;BME280;5107;48.850;8.924;2023-03-21T11:13:07;96807.03;;;15.26;50.49
10135;BME280;5107;48.850;8.924;2023-03-21T11:15:52;96809.00;;;15.52;49.55
10135;BME280;5107;48.850;8.924;2023-03-21T11:18:21;96806.28;;;15.80;48.36
10135;BME280;5107;48.850;8.924;2023-03-21T11:20:52;96800.50;;;15.63;48.17
10135;BME280;5107;48.850;8.924;2023-03-21T11:23:24;96802.22;;;15.43;49.53
10135;BME280;5107;48.850;8.924;2023-03-21T11:25:52;96796.19;;;15.14;50.19
10135;BME280;5107;48.850;8.924;2023-03-21T11:28:24;96798.47;;;14.90;50.06
10135;BME280;5107;48.850;8.924;2023-03-21T11:30:59;96794.22;;;14.89;50.83
10135;BME280;5107;48.850;8.924;2023-03-21T11:33:32;96807.47;;;14.89;50.56
10135;BME280;5107;48.850;8.924;2023-03-21T11:36:03;96801.19;;;14.96;50.70
10135;BME280;5107;48.850;8.924;2023-03-21T11:38:35;96795.38;;;14.79;50.27
10135;BME280;5107;48.850;8.924;2023-03-21T11:41:04;96791.72;;;14.80;50.26
10135;BME280;5107;48.850;8.924;2023-03-21T11:43:36;96787.66;;;14.85;50.90
10135;BME280;5107;48.850;8.924;2023-03-21T11:46:07;96784.50;;;14.74;50.78
10135;BME280;5107;48.850;8.924;2023-03-21T11:48:38;96780.81;;;14.97;50.49
10135;BME280;5107;48.850;8.924;2023-03-21T11:51:17;96770.81;;;14.99;50.13
10135;BME280;5107;48.850;8.924;2023-03-21T11:53:54;96776.06;;;14.92;50.32
10135;BME280;5107;48.850;8.924;2023-03-21T11:56:28;96764.66;;;14.92;50.22
10135;BME280;5107;48.850;8.924;2023-03-21T11:59:26;96769.72;;;14.87;50.46
10135;BME280;5107;48.850;8.924;2023-03-21T12:02:21;96769.63;;;14.73;50.61
10135;BME280;5107;48.850;8.924;2023-03-21T12:04:54;96765.59;;;14.77;49.48
10135;BME280;5107;48.850;8.924;2023-03-21T12:07:44;96757.88;;;14.82;50.16
10135;BME280;5107;48.850;8.924;2023-03-21T12:10:29;96754.84;;;14.86;50.49
10135;BME280;5107;48.850;8.924;2023-03-21T12:13:09;96761.38;;;14.90;50.60
10135;BME280;5107;48.850;8.924;2023-03-21T12:15:47;96747.75;;;14.93;50.76
10135;BME280;5107;48.850;8.924;2023-03-21T12:18:42;96745.22;;;15.19;51.72
10135;BME280;5107;48.850;8.924;2023-03-21T12:21:19;96741.09;;;15.57;49.57
10135;BME280;5107;48.850;8.924;2023-03-21T12:24:00;96734.63;;;16.00;48.28
10135;BME280;5107;48.850;8.924;2023-03-21T12:26:36;96735.06;;;16.23;48.41
10135;BME280;5107;48.850;8.924;2023-03-21T12:29:24;96727.88;;;16.50;47.08
10135;BME280;5107;48.850;8.924;2023-03-21T12:32:14;96726.66;;;16.72;46.81
10135;BME280;5107;48.850;8.924;2023-03-21T12:35:19;96727.28;;;16.48;47.88
10135;BME280;5107;48.850;8.924;2023-03-21T12:37:59;96720.56;;;16.25;47.93
10135;BME280;5107;48.850;8.924;2023-03-21T12:40:47;96724.03;;;16.46;48.31
10135;BME280;5107;48.850;8.924;2023-03-21T12:43:30;96713.91;;;17.00;47.76
10135;BME280;5107;48.850;8.924;2023-03-21T12:46:04;96718.94;;;17.22;48.51
10135;BME280;5107;48.850;8.924;2023-03-21T12:48:42;96706.84;;;17.26;47.71
10135;BME280;5107;48.850;8.924;2023-03-21T12:51:14;96712.91;;;17.46;47.31
10135;BME280;5107;48.850;8.924;2023-03-21T12:53:50;96706.63;;;17.72;46.86
10135;BME280;5107;48.850;8.924;2023-03-21T12:56:24;96702.88;;;17.48;46.85
10135;BME280;5107;48.850;8.924;2023-03-21T12:58:59;96708.53;;;17.65;47.06
10135;BME280;5107;48.850;8.924;2023-03-21T13:01:28;96708.31;;;17.98;47.80
10135;BME280;5107;48.850;8.924;2023-03-21T13:04:38;96704.34;;;18.07;45.76
10135;BME280;5107;48.850;8.924;2023-03-21T13:07:09;96704.78;;;17.72;46.43
10135;BME280;5107;48.850;8.924;2023-03-21T13:09:40;96699.22;;;17.80;46.02
10135;BME280;5107;48.850;8.924;2023-03-21T13:12:24;96704.78;;;17.72;45.54
10135;BME280;5107;48.850;8.924;2023-03-21T13:15:13;96699.59;;;17.46;46.00
10135;BME280;5107;48.850;8.924;2023-03-21T13:17:49;96695.38;;;17.25;46.75
10135;BME280;5107;48.850;8.924;2023-03-21T13:20:28;96702.28;;;16.88;48.29
10135;BME280;5107;48.850;8.924;2023-03-21T13:22:58;96693.53;;;16.81;49.05
10135;BME280;5107;48.850;8.924;2023-03-21T13:25:25;96696.41;;;16.66;49.54
10135;BME280;5107;48.850;8.924;2023-03-21T13:28:01;96697.84;;;16.49;49.88
10135;BME280;5107;48.850;8.924;2023-03-21T13:30:31;96693.78;;;16.27;50.72
10135;BME280;5107;48.850;8.924;2023-03-21T13:33:04;96700.34;;;16.31;49.71
10135;BME280;5107;48.850;8.924;2023-03-21T13:35:37;96705.22;;;16.27;50.72
10135;BME280;5107;48.850;8.924;2023-03-21T13:38:11;96701.16;;;16.38;49.59
10135;BME280;5107;48.850;8.924;2023-03-21T13:40:44;96690.72;;;16.37;49.34
10135;BME280;5107;48.850;8.924;2023-03-21T13:43:34;96679.91;;;16.38;49.13
10135;BME280;5107;48.850;8.924;2023-03-21T13:46:08;96674.59;;;16.31;50.69
10135;BME280;5107;48.850;8.924;2023-03-21T13:48:57;96664.16;;;16.43;49.26
10135;BME280;5107;48.850;8.924;2023-03-21T13:51:44;96654.97;;;16.46;49.12
10135;BME280;5107;48.850;8.924;2023-03-21T13:54:26;96659.25;;;16.47;51.01
10135;BME280;5107;48.850;8.924;2023-03-21T13:56:58;96651.47;;;16.52;48.62